sensor_id;sensor_type;location;lat;lon;timestamp;pressure;altitude;pressure_sealevel;temperature;humidity
1926;BME280;964;42.606;23.588;2023-01-31T00:01:24;94033.75;;;15.44;28.53
1926;BME280;964;42.606;23.588;2023-01-31T00:03:52;94037.06;;;15.66;28.47
1926;BME280;964;42.606;23.588;2023-01-31T00:06:21;94043.56;;;15.61;28.21
1926;BME280;964;42.606;23.588;2023-01-31T00:08:49;94033.66;;;15.62;27.96
1926;BME280;964;42.606;23.588;2023-01-31T00:11:19;94035.94;;;15.60;28.46
1926;BME280;964;42.606;23.588;2023-01-31T00:13:47;94044.22;;;15.76;28.36
1926;BME280;964;42.606;23.588;2023-01-31T00:16:15;94045.38;;;15.09;28.89
1926;BME280;964;42.606;23.588;2023-01-31T00:18:43;94053.88;;;14.87;29.56
1926;BME280;964;42.606;23.588;2023-01-31T00:21:12;94042.47;;;14.86;29.49
1926;BME280;964;42.606;23.588;2023-01-31T00:23:40;94033.13;;;15.15;29.12
1926;BME280;964;42.606;23.588;2023-01-31T00:26:09;94037.91;;;14.76;29.39
1926;BME280;964;42.606;23.588;2023-01-31T00:28:36;94034.66;;;14.05;30.35
1926;BME280;964;42.606;23.588;2023-01-31T00:31:04;94035.69;;;14.64;30.41
1926;BME280;964;42.606;23.588;2023-01-31T00:33:32;94033.56;;;15.10;29.57
1926;BME280;964;42.606;23.588;2023-01-31T00:35:58;94033.69;;;15.55;28.75
1926;BME280;964;42.606;23.588;2023-01-31T00:38:27;94036.31;;;15.62;28.73
1926;BME280;964;42.606;23.588;2023-01-31T00:40:54;94036.75;;;15.53;28.65
1926;BME280;964;42.606;23.588;2023-01-31T00:43:21;94038.38;;;15.37;28.33
1926;BME280;964;42.606;23.588;2023-01-31T00:45:47;94037.16;;;15.45;28.71
1926;BME280;964;42.606;23.588;2023-01-31T00:48:15;94032.91;;;15.58;28.48
1926;BME280;964;42.606;23.588;2023-01-31T00:50:42;94023.81;;;15.52;28.53
1926;BME280;964;42.606;23.588;2023-01-31T00:53:09;94019.06;;;15.74;28.32
1926;BME280;964;42.606;23.588;2023-01-31T00:55:35;94033.66;;;15.62;28.25
1926;BME280;964;42.606;23.588;2023-01-31T00:58:02;94034.66;;;15.16;28.74
1926;BME280;964;42.606;23.588;2023-01-31T01:00:29;94035.69;;;14.64;29.35
1926;BME280;964;42.606;23.588;2023-01-31T01:02:56;94033.47;;;14.38;30.16
1926;BME280;964;42.606;23.588;2023-01-31T01:05:24;94029.69;;;14.10;30.33
1926;BME280;964;42.606;23.588;2023-01-31T01:07:51;94029.72;;;13.33;30.28
1926;BME280;964;42.606;23.588;2023-01-31T01:10:17;94032.59;;;12.82;31.39
1926;BME280;964;42.606;23.588;2023-01-31T01:12:44;94025.94;;;13.80;30.65
1926;BME280;964;42.606;23.588;2023-01-31T01:15:11;94019.00;;;14.46;30.23
1926;BME280;964;42.606;23.588;2023-01-31T01:17:37;94012.13;;;14.45;29.77
1926;BME280;964;42.606;23.588;2023-01-31T01:20:05;94005.34;;;14.08;30.59
1926;BME280;964;42.606;23.588;2023-01-31T01:22:34;94014.44;;;14.36;29.45
1926;BME280;964;42.606;23.588;2023-01-31T01:25:00;94012.13;;;14.41;29.68
1926;BME280;964;42.606;23.588;2023-01-31T01:27:27;94028.19;;;14.09;30.59
1926;BME280;964;42.606;23.588;2023-01-31T01:29:54;94026.59;;;14.30;29.95
1926;BME280;964;42.606;23.588;2023-01-31T01:32:20;94027.81;;;13.86;30.74
1926;BME280;964;42.606;23.588;2023-01-31T01:34:47;94031.09;;;14.61;30.01
1926;BME280;964;42.606;23.588;2023-01-31T01:37:14;94032.00;;;14.05;31.09
1926;BME280;964;42.606;23.588;2023-01-31T01:39:45;94028.91;;;14.13;30.23
1926;BME280;964;42.606;23.588;2023-01-31T01:42:14;94024.75;;;14.05;30.96
1926;BME280;964;42.606;23.588;2023-01-31T01:44:46;94022.81;;;14.27;30.32
1926;BME280;964;42.606;23.588;2023-01-31T01:47:25;94019.78;;;14.07;31.17
1926;BME280;964;42.606;23.588;2023-01-31T01:50:00;94021.22;;;14.58;30.50
1926;BME280;964;42.606;23.588;2023-01-31T01:52:29;94019.25;;;14.76;29.96
1926;BME280;964;42.606;23.588;2023-01-31T01:55:02;94021.63;;;14.53;29.96
1926;BME280;964;42.606;23.588;2023-01-31T01:57:33;94008.66;;;14.55;30.73
1926;BME280;964;42.606;23.588;2023-01-31T02:00:08;93998.72;;;14.66;30.20
1926;BME280;964;42.606;23.588;2023-01-31T02:02:36;94009.56;;;13.81;31.08
1926;BME280;964;42.606;23.588;2023-01-31T02:05:04;94003.81;;;14.00;30.94
1926;BME280;964;42.606;23.588;2023-01-31T02:07:31;94011.88;;;13.47;31.75
1926;BME280;964;42.606;23.588;2023-01-31T02:10:02;94002.31;;;13.92;30.65
1926;BME280;964;42.606;23.588;2023-01-31T02:12:31;94012.59;;;13.83;30.64
1926;BME280;964;42.606;23.588;2023-01-31T02:14:58;94026.66;;;13.23;31.79
1926;BME280;964;42.606;23.588;2023-01-31T02:17:25;94012.22;;;13.32;31.41
1926;BME280;964;42.606;23.588;2023-01-31T02:20:03;94023.47;;;12.83;32.98
1926;BME280;964;42.606;23.588;2023-01-31T02:22:39;94022.06;;;13.10;32.00
1926;BME280;964;42.606;23.588;2023-01-31T02:28:57;94021.09;;;12.46;32.67
1926;BME280;964;42.606;23.588;2023-01-31T02:31:54;94028.91;;;10.86;34.97
1926;BME280;964;42.606;23.588;2023-01-31T02:34:33;94028.13;;;11.66;33.81
1926;BME280;964;42.606;23.588;2023-01-31T02:37:13;94018.88;;;11.46;34.70
1926;BME280;964;42.606;23.588;2023-01-31T02:39:48;94012.00;;;11.85;34.15
1926;BME280;964;42.606;23.588;2023-01-31T02:42:22;94012.84;;;11.49;34.44
1926;BME280;964;42.606;23.588;2023-01-31T02:44:58;94026.84;;;11.05;34.65
1926;BME280;964;42.606;23.588;2023-01-31T02:47:44;94044.22;;;11.40;34.62
1926;BME280;964;42.606;23.588;2023-01-31T02:50:19;94043.81;;;11.82;33.75
1926;BME280;964;42.606;23.588;2023-01-31T02:52:53;94051.06;;;12.50;32.84
1926;BME280;964;42.606;23.588;2023-01-31T02:55:27;94054.53;;;12.61;31.69
1926;BME280;964;42.606;23.588;2023-01-31T02:58:13;94061.84;;;12.78;31.96
1926;BME280;964;42.606;23.588;2023-01-31T03:00:43;94070.75;;;13.24;30.88
1926;BME280;964;42.606;23.588;2023-01-31T03:03:17;94065.19;;;12.68;32.20
1926;BME280;964;42.606;23.588;2023-01-31T03:06:11;94061.09;;;12.81;31.63
1926;BME280;964;42.606;23.588;2023-01-31T03:09:03;94082.06;;;11.73;33.78
1926;BME280;964;42.606;23.588;2023-01-31T03:11:36;94083.94;;;12.24;33.12
1926;BME280;964;42.606;23.588;2023-01-31T03:14:09;94093.97;;;12.52;32.44
1926;BME280;964;42.606;23.588;2023-01-31T03:16:43;94097.34;;;12.42;33.67
1926;BME280;964;42.606;23.588;2023-01-31T03:19:37;94103.38;;;12.39;34.24
1926;BME280;964;42.606;23.588;2023-01-31T03:22:10;94105.00;;;11.99;33.77
1926;BME280;964;42.606;23.588;2023-01-31T03:24:41;94106.44;;;11.86;34.32
1926;BME280;964;42.606;23.588;2023-01-31T03:27:08;94110.25;;;11.89;34.30
1926;BME280;964;42.606;23.588;2023-01-31T03:29:37;94116.28;;;11.86;34.01
1926;BME280;964;42.606;23.588;2023-01-31T03:32:08;94126.00;;;11.71;34.26
1926;BME280;964;42.606;23.588;2023-01-31T03:34:37;94131.16;;;11.57;34.96
1926;BME280;964;42.606;23.588;2023-01-31T03:37:10;94126.31;;;12.10;34.13
1926;BME280;964;42.606;23.588;2023-01-31T03:39:41;94134.44;;;11.80;34.37
1926;BME280;964;42.606;23.588;2023-01-31T03:42:15;94135.22;;;11.84;34.41
1926;BME280;964;42.606;23.588;2023-01-31T03:44:49;94128.78;;;12.36;33.00
1926;BME280;964;42.606;23.588;2023-01-31T03:47:22;94123.94;;;12.49;32.88
1926;BME280;964;42.606;23.588;2023-01-31T03:49:52;94128.28;;;12.16;34.00
1926;BME280;964;42.606;23.588;2023-01-31T03:52:25;94129.53;;;12.29;33.57
1926;BME280;964;42.606;23.588;2023-01-31T03:54:56;94143.19;;;12.32;33.53
1926;BME280;964;42.606;23.588;2023-01-31T03:57:27;94131.53;;;11.96;33.79
1926;BME280;964;42.606;23.588;2023-01-31T03:59:57;94144.75;;;12.40;33.81
1926;BME280;964;42.606;23.588;2023-01-31T04:02:28;94143.53;;;11.79;34.62
1926;BME280;964;42.606;23.588;2023-01-31T04:05:02;94133.94;;;12.11;34.12
1926;BME280;964;42.606;23.588;2023-01-31T04:07:32;94137.34;;;12.08;34.03
1926;BME280;964;42.606;23.588;2023-01-31T04:09:59;94128.13;;;12.53;33.81
1926;BME280;964;42.606;23.588;2023-01-31T04:12:25;94138.06;;;12.60;33.67
1926;BME280;964;42.606;23.588;2023-01-31T04:14:52;94144.50;;;12.04;33.56
1926;BME280;964;42.606;23.588;2023-01-31T04:17:19;94138.97;;;12.85;33.66
1926;BME280;964;42.606;23.588;2023-01-31T04:19:46;94138.06;;;12.60;32.24
1926;BME280;964;42.606;23.588;2023-01-31T04:22:12;94148.50;;;12.32;33.93
1926;BME280;964;42.606;23.588;2023-01-31T04:24:40;94137.00;;;12.75;33.13
1926;BME280;964;42.606;23.588;2023-01-31T04:27:07;94130.78;;;12.50;34.01
1926;BME280;964;42.606;23.588;2023-01-31T04:29:34;94135.44;;;12.67;33.60
1926;BME280;964;42.606;23.588;2023-01-31T04:32:01;94129.13;;;12.96;33.89
1926;BME280;964;42.606;23.588;2023-01-31T04:34:30;94138.78;;;12.57;33.45
1926;BME280;964;42.606;23.588;2023-01-31T04:36:56;94142.44;;;12.96;33.75
1926;BME280;964;42.606;23.588;2023-01-31T04:39:23;94142.00;;;12.87;34.30
1926;BME280;964;42.606;23.588;2023-01-31T04:41:51;94148.75;;;12.67;34.21
1926;BME280;964;42.606;23.588;2023-01-31T04:44:18;94158.13;;;13.22;33.91
1926;BME280;964;42.606;23.588;2023-01-31T04:46:45;94163.03;;;12.48;35.27
1926;BME280;964;42.606;23.588;2023-01-31T04:49:12;94162.81;;;12.16;35.20
1926;BME280;964;42.606;23.588;2023-01-31T04:51:38;94170.59;;;12.46;35.94
1926;BME280;964;42.606;23.588;2023-01-31T04:54:05;94186.81;;;11.83;36.11
1926;BME280;964;42.606;23.588;2023-01-31T04:56:32;94187.38;;;12.54;35.92
1926;BME280;964;42.606;23.588;2023-01-31T04:59:00;94187.03;;;12.59;35.83
1926;BME280;964;42.606;23.588;2023-01-31T05:01:27;94179.81;;;12.56;35.46
1926;BME280;964;42.606;23.588;2023-01-31T05:03:54;94176.28;;;13.03;34.42
1926;BME280;964;42.606;23.588;2023-01-31T05:06:21;94188.13;;;12.03;36.04
1926;BME280;964;42.606;23.588;2023-01-31T05:08:48;94179.84;;;11.71;36.86
1926;BME280;964;42.606;23.588;2023-01-31T05:11:17;94177.91;;;12.05;36.86
1926;BME280;964;42.606;23.588;2023-01-31T05:13:44;94170.34;;;12.11;36.13
1926;BME280;964;42.606;23.588;2023-01-31T05:16:13;94168.66;;;12.40;36.36
1926;BME280;964;42.606;23.588;2023-01-31T05:18:39;94166.69;;;12.84;35.44
1926;BME280;964;42.606;23.588;2023-01-31T05:21:06;94165.28;;;12.43;35.80
1926;BME280;964;42.606;23.588;2023-01-31T05:23:33;94175.78;;;12.25;36.37
1926;BME280;964;42.606;23.588;2023-01-31T05:26:00;94177.13;;;13.21;34.86
1926;BME280;964;42.606;23.588;2023-01-31T05:28:26;94171.28;;;12.33;35.80
1926;BME280;964;42.606;23.588;2023-01-31T05:30:59;94172.16;;;12.51;36.04
1926;BME280;964;42.606;23.588;2023-01-31T05:33:28;94169.63;;;12.17;36.10
1926;BME280;964;42.606;23.588;2023-01-31T05:35:57;94176.63;;;12.40;36.62
1926;BME280;964;42.606;23.588;2023-01-31T05:38:24;94169.75;;;12.32;36.97
1926;BME280;964;42.606;23.588;2023-01-31T05:40:51;94175.09;;;12.93;35.72
1926;BME280;964;42.606;23.588;2023-01-31T05:43:18;94177.88;;;13.11;34.90
1926;BME280;964;42.606;23.588;2023-01-31T05:45:46;94185.19;;;12.66;36.12
1926;BME280;964;42.606;23.588;2023-01-31T05:48:13;94185.78;;;12.42;35.92
1926;BME280;964;42.606;23.588;2023-01-31T05:50:41;94189.63;;;12.52;36.81
1926;BME280;964;42.606;23.588;2023-01-31T05:53:08;94184.41;;;12.66;35.71
1926;BME280;964;42.606;23.588;2023-01-31T05:55:35;94183.00;;;12.86;35.65
1926;BME280;964;42.606;23.588;2023-01-31T05:58:02;94193.63;;;12.86;36.00
1926;BME280;964;42.606;23.588;2023-01-31T06:00:28;94178.66;;;13.18;34.50
1926;BME280;964;42.606;23.588;2023-01-31T06:02:56;94182.41;;;13.10;34.50
1926;BME280;964;42.606;23.588;2023-01-31T06:05:23;94178.81;;;13.64;33.72
1926;BME280;964;42.606;23.588;2023-01-31T06:07:51;94186.94;;;13.06;35.24
1926;BME280;964;42.606;23.588;2023-01-31T06:10:17;94187.78;;;13.24;34.88
1926;BME280;964;42.606;23.588;2023-01-31T06:12:44;94197.75;;;13.49;35.21
1926;BME280;964;42.606;23.588;2023-01-31T06:15:11;94203.84;;;12.77;35.64
1926;BME280;964;42.606;23.588;2023-01-31T06:17:37;94193.34;;;14.02;33.98
1926;BME280;964;42.606;23.588;2023-01-31T06:20:05;94192.56;;;13.98;33.82
1926;BME280;964;42.606;23.588;2023-01-31T06:22:31;94198.28;;;14.14;33.70
1926;BME280;964;42.606;23.588;2023-01-31T06:25:00;94201.34;;;14.23;33.37
1926;BME280;964;42.606;23.588;2023-01-31T06:27:26;94205.50;;;13.96;33.74
1926;BME280;964;42.606;23.588;2023-01-31T06:29:53;94190.28;;;14.00;33.57
1926;BME280;964;42.606;23.588;2023-01-31T06:32:19;94204.31;;;13.80;34.15
1926;BME280;964;42.606;23.588;2023-01-31T06:34:46;94199.38;;;13.85;34.57
1926;BME280;964;42.606;23.588;2023-01-31T06:37:13;94190.22;;;13.72;34.77
1926;BME280;964;42.606;23.588;2023-01-31T06:39:40;94191.00;;;13.72;35.13
1926;BME280;964;42.606;23.588;2023-01-31T06:42:08;94181.47;;;13.64;35.70
1926;BME280;964;42.606;23.588;2023-01-31T06:44:34;94189.50;;;13.96;34.11
1926;BME280;964;42.606;23.588;2023-01-31T06:47:02;94178.88;;;14.28;33.94
1926;BME280;964;42.606;23.588;2023-01-31T06:49:28;94191.06;;;14.15;33.99
1926;BME280;964;42.606;23.588;2023-01-31T06:51:55;94181.16;;;14.22;34.10
1926;BME280;964;42.606;23.588;2023-01-31T06:54:22;94184.16;;;13.79;34.29
1926;BME280;964;42.606;23.588;2023-01-31T06:56:49;94184.59;;;14.23;34.13
1926;BME280;964;42.606;23.588;2023-01-31T06:59:17;94171.66;;;14.36;34.46
1926;BME280;964;42.606;23.588;2023-01-31T07:01:43;94181.91;;;13.98;34.77
1926;BME280;964;42.606;23.588;2023-01-31T07:04:10;94178.84;;;13.96;34.90
1926;BME280;964;42.606;23.588;2023-01-31T07:06:37;94188.75;;;14.06;34.38
1926;BME280;964;42.606;23.588;2023-01-31T07:09:04;94188.72;;;13.82;35.15
1926;BME280;964;42.606;23.588;2023-01-31T07:11:31;94183.09;;;14.40;34.42
1926;BME280;964;42.606;23.588;2023-01-31T07:13:58;94182.69;;;14.73;33.99
1926;BME280;964;42.606;23.588;2023-01-31T07:16:26;94181.16;;;14.19;34.10
1926;BME280;964;42.606;23.588;2023-01-31T07:18:53;94197.91;;;14.02;34.22
1926;BME280;964;42.606;23.588;2023-01-31T07:21:20;94186.03;;;13.74;34.38
1926;BME280;964;42.606;23.588;2023-01-31T07:23:48;94183.44;;;14.10;34.12
1926;BME280;964;42.606;23.588;2023-01-31T07:26:15;94191.00;;;13.69;34.35
1926;BME280;964;42.606;23.588;2023-01-31T07:28:42;94188.06;;;14.41;34.10
1926;BME280;964;42.606;23.588;2023-01-31T07:31:11;94186.50;;;14.33;33.95
1926;BME280;964;42.606;23.588;2023-01-31T07:33:39;94209.34;;;14.06;34.27
1926;BME280;964;42.606;23.588;2023-01-31T07:36:09;94202.16;;;14.49;34.06
1926;BME280;964;42.606;23.588;2023-01-31T07:38:37;94200.13;;;15.16;32.97
1926;BME280;964;42.606;23.588;2023-01-31T07:41:04;94208.56;;;14.05;33.87
1926;BME280;964;42.606;23.588;2023-01-31T07:43:33;94201.22;;;15.37;32.87
1926;BME280;964;42.606;23.588;2023-01-31T07:46:00;94204.09;;;15.74;32.01
1926;BME280;964;42.606;23.588;2023-01-31T07:48:27;94194.75;;;15.27;32.62
1926;BME280;964;42.606;23.588;2023-01-31T07:50:59;94199.97;;;15.66;32.46
1926;BME280;964;42.606;23.588;2023-01-31T07:53:27;94198.38;;;15.76;32.30
1926;BME280;964;42.606;23.588;2023-01-31T07:55:54;94203.22;;;14.90;33.12
1926;BME280;964;42.606;23.588;2023-01-31T07:58:21;94206.88;;;15.56;33.00
1926;BME280;964;42.606;23.588;2023-01-31T08:00:48;94211.38;;;15.74;32.62
1926;BME280;964;42.606;23.588;2023-01-31T08:03:32;94209.47;;;16.33;31.94
1926;BME280;964;42.606;23.588;2023-01-31T08:06:02;94198.53;;;16.68;31.09
1926;BME280;964;42.606;23.588;2023-01-31T08:08:29;94203.16;;;16.64;31.45
1926;BME280;964;42.606;23.588;2023-01-31T08:10:56;94186.16;;;18.13;29.48
1926;BME280;964;42.606;23.588;2023-01-31T08:13:23;94188.41;;;18.68;28.22
1926;BME280;964;42.606;23.588;2023-01-31T08:15:51;94194.56;;;17.58;29.84
1926;BME280;964;42.606;23.588;2023-01-31T08:18:18;94180.91;;;17.11;29.59
1926;BME280;964;42.606;23.588;2023-01-31T08:20:45;94189.19;;;17.88;29.86
1926;BME280;964;42.606;23.588;2023-01-31T08:23:13;94182.13;;;17.41;29.92
1926;BME280;964;42.606;23.588;2023-01-31T08:25:39;94176.09;;;19.14;28.67
1926;BME280;964;42.606;23.588;2023-01-31T08:28:06;94168.09;;;18.90;28.38
1926;BME280;964;42.606;23.588;2023-01-31T08:30:33;94173.22;;;20.68;26.67
1926;BME280;964;42.606;23.588;2023-01-31T08:33:00;94163.13;;;21.17;25.24
1926;BME280;964;42.606;23.588;2023-01-31T08:35:27;94183.63;;;18.29;27.75
1926;BME280;964;42.606;23.588;2023-01-31T08:37:53;94196.44;;;17.24;29.98
1926;BME280;964;42.606;23.588;2023-01-31T08:40:21;94211.25;;;16.53;31.81
1926;BME280;964;42.606;23.588;2023-01-31T08:42:55;94215.66;;;15.46;32.84
1926;BME280;964;42.606;23.588;2023-01-31T08:45:22;94213.47;;;15.16;33.68
1926;BME280;964;42.606;23.588;2023-01-31T08:47:52;94200.13;;;16.03;32.44
1926;BME280;964;42.606;23.588;2023-01-31T08:50:19;94192.63;;;18.16;29.56
1926;BME280;964;42.606;23.588;2023-01-31T08:52:51;94184.47;;;19.94;27.70
1926;BME280;964;42.606;23.588;2023-01-31T08:55:18;94185.03;;;20.22;26.89
1926;BME280;964;42.606;23.588;2023-01-31T08:57:46;94200.09;;;19.44;27.31
1926;BME280;964;42.606;23.588;2023-01-31T09:00:13;94193.88;;;19.86;27.35
1926;BME280;964;42.606;23.588;2023-01-31T09:02:40;94201.50;;;18.63;28.71
1926;BME280;964;42.606;23.588;2023-01-31T09:05:07;94197.47;;;17.97;29.33
1926;BME280;964;42.606;23.588;2023-01-31T09:07:34;94184.38;;;18.56;29.23
1926;BME280;964;42.606;23.588;2023-01-31T09:10:01;94178.25;;;19.42;27.48
1926;BME280;964;42.606;23.588;2023-01-31T09:12:28;94190.56;;;19.20;27.66
1926;BME280;964;42.606;23.588;2023-01-31T09:14:56;94179.63;;;19.30;28.13
1926;BME280;964;42.606;23.588;2023-01-31T09:17:22;94177.03;;;19.82;26.66
1926;BME280;964;42.606;23.588;2023-01-31T09:19:49;94181.50;;;18.67;28.40
1926;BME280;964;42.606;23.588;2023-01-31T09:22:16;94186.50;;;19.12;27.84
1926;BME280;964;42.606;23.588;2023-01-31T09:24:42;94187.53;;;18.75;28.76
1926;BME280;964;42.606;23.588;2023-01-31T09:27:10;94196.03;;;19.13;27.87
1926;BME280;964;42.606;23.588;2023-01-31T09:29:37;94181.00;;;18.49;28.70
1926;BME280;964;42.606;23.588;2023-01-31T09:32:05;94179.66;;;18.37;29.73
1926;BME280;964;42.606;23.588;2023-01-31T09:34:33;94179.59;;;19.10;28.87
1926;BME280;964;42.606;23.588;2023-01-31T09:36:59;94176.22;;;19.06;28.35
1926;BME280;964;42.606;23.588;2023-01-31T09:39:26;94154.47;;;19.60;27.75
1926;BME280;964;42.606;23.588;2023-01-31T09:41:55;94150.16;;;19.82;26.79
1926;BME280;964;42.606;23.588;2023-01-31T09:44:26;94143.69;;;20.64;26.54
1926;BME280;964;42.606;23.588;2023-01-31T09:47:00;94139.25;;;22.23;24.40
1926;BME280;964;42.606;23.588;2023-01-31T09:49:41;94146.50;;;20.89;25.91
1926;BME280;964;42.606;23.588;2023-01-31T09:52:10;94155.38;;;21.19;25.38
1926;BME280;964;42.606;23.588;2023-01-31T09:54:38;94165.72;;;20.59;26.22
1926;BME280;964;42.606;23.588;2023-01-31T09:57:15;94155.31;;;20.61;26.12
1926;BME280;964;42.606;23.588;2023-01-31T09:59:48;94159.34;;;20.53;26.70
1926;BME280;964;42.606;23.588;2023-01-31T10:02:30;94162.34;;;19.51;26.96
1926;BME280;964;42.606;23.588;2023-01-31T10:05:15;94155.84;;;19.68;27.79
1926;BME280;964;42.606;23.588;2023-01-31T10:07:50;94153.50;;;19.31;27.10
1926;BME280;964;42.606;23.588;2023-01-31T10:10:25;94136.84;;;19.20;28.02
1926;BME280;964;42.606;23.588;2023-01-31T10:12:56;94146.03;;;18.79;28.26
1926;BME280;964;42.606;23.588;2023-01-31T10:15:30;94145.09;;;18.43;28.84
1926;BME280;964;42.606;23.588;2023-01-31T10:18:01;94142.28;;;18.73;28.17
1926;BME280;964;42.606;23.588;2023-01-31T10:20:36;94157.25;;;18.74;29.28
1926;BME280;964;42.606;23.588;2023-01-31T10:23:06;94154.44;;;18.58;28.88
1926;BME280;964;42.606;23.588;2023-01-31T10:25:40;94150.91;;;18.84;28.54
1926;BME280;964;42.606;23.588;2023-01-31T10:28:14;94144.56;;;19.37;28.10
1926;BME280;964;42.606;23.588;2023-01-31T10:30:47;94139.94;;;19.93;27.63
1926;BME280;964;42.606;23.588;2023-01-31T10:33:22;94152.28;;;19.55;28.03
1926;BME280;964;42.606;23.588;2023-01-31T10:35:54;94167.78;;;17.58;29.47
1926;BME280;964;42.606;23.588;2023-01-31T10:38:24;94159.56;;;17.38;31.48
1926;BME280;964;42.606;23.588;2023-01-31T10:40:56;94160.41;;;17.32;30.37
1926;BME280;964;42.606;23.588;2023-01-31T10:43:32;94163.75;;;17.05;31.56
1926;BME280;964;42.606;23.588;2023-01-31T10:46:08;94170.97;;;16.75;31.11
1926;BME280;964;42.606;23.588;2023-01-31T10:48:35;94174.38;;;16.31;32.31
1926;BME280;964;42.606;23.588;2023-01-31T10:51:10;94157.22;;;16.73;30.97
1926;BME280;964;42.606;23.588;2023-01-31T10:54:01;94168.22;;;16.34;31.40
1926;BME280;964;42.606;23.588;2023-01-31T10:56:32;94162.06;;;16.40;31.59
1926;BME280;964;42.606;23.588;2023-01-31T10:59:03;94159.00;;;16.86;31.47
1926;BME280;964;42.606;23.588;2023-01-31T11:01:30;94155.28;;;17.10;30.74
1926;BME280;964;42.606;23.588;2023-01-31T11:03:57;94158.91;;;16.56;32.17
1926;BME280;964;42.606;23.588;2023-01-31T11:06:26;94154.16;;;17.42;31.07
1926;BME280;964;42.606;23.588;2023-01-31T11:08:55;94163.31;;;16.73;32.40
1926;BME280;964;42.606;23.588;2023-01-31T11:11:24;94161.19;;;16.50;31.94
1926;BME280;964;42.606;23.588;2023-01-31T11:13:58;94162.19;;;16.23;32.45
1926;BME280;964;42.606;23.588;2023-01-31T11:16:27;94164.13;;;16.18;33.05
1926;BME280;964;42.606;23.588;2023-01-31T11:18:56;94163.06;;;16.09;32.74
1926;BME280;964;42.606;23.588;2023-01-31T11:21:27;94171.28;;;15.77;33.00
1926;BME280;964;42.606;23.588;2023-01-31T11:23:59;94167.72;;;15.98;33.28
1926;BME280;964;42.606;23.588;2023-01-31T11:26:29;94162.75;;;16.48;32.32
1926;BME280;964;42.606;23.588;2023-01-31T11:28:56;94170.28;;;15.50;32.79
1926;BME280;964;42.606;23.588;2023-01-31T11:31:28;94166.53;;;15.30;33.62
1926;BME280;964;42.606;23.588;2023-01-31T11:33:58;94167.31;;;16.51;32.03
1926;BME280;964;42.606;23.588;2023-01-31T11:36:25;94169.13;;;15.51;33.73
1926;BME280;964;42.606;23.588;2023-01-31T11:38:57;94164.00;;;15.81;33.16
1926;BME280;964;42.606;23.588;2023-01-31T11:41:31;94170.16;;;15.71;33.39
1926;BME280;964;42.606;23.588;2023-01-31T11:44:16;94162.34;;;16.05;33.07
1926;BME280;964;42.606;23.588;2023-01-31T11:46:48;94162.53;;;15.73;33.44
1926;BME280;964;42.606;23.588;2023-01-31T11:49:29;94164.16;;;15.46;33.99
1926;BME280;964;42.606;23.588;2023-01-31T11:51:58;94166.56;;;15.23;34.81
1926;BME280;964;42.606;23.588;2023-01-31T11:54:29;94166.47;;;15.47;34.35
1926;BME280;964;42.606;23.588;2023-01-31T11:56:57;94158.94;;;15.97;33.59
1926;BME280;964;42.606;23.588;2023-01-31T11:59:27;94149.13;;;14.79;34.83
1926;BME280;964;42.606;23.588;2023-01-31T12:01:57;94154.34;;;15.25;35.26
1926;BME280;964;42.606;23.588;2023-01-31T12:04:29;94161.94;;;15.27;35.00
1926;BME280;964;42.606;23.588;2023-01-31T12:07:00;94164.16;;;15.46;34.51
1926;BME280;964;42.606;23.588;2023-01-31T12:09:38;94163.94;;;15.01;35.26
1926;BME280;964;42.606;23.588;2023-01-31T12:12:20;94168.97;;;14.78;36.04
1926;BME280;964;42.606;23.588;2023-01-31T12:14:47;94164.84;;;14.42;36.64
1926;BME280;964;42.606;23.588;2023-01-31T12:17:15;94178.50;;;14.54;37.43
1926;BME280;964;42.606;23.588;2023-01-31T12:22:34;94178.91;;;14.42;37.88
1926;BME280;964;42.606;23.588;2023-01-31T12:25:12;94169.22;;;15.15;36.89
1926;BME280;964;42.606;23.588;2023-01-31T12:27:52;94170.44;;;15.00;37.26
1926;BME280;964;42.606;23.588;2023-01-31T12:30:48;94168.22;;;14.74;37.33
1926;BME280;964;42.606;23.588;2023-01-31T12:33:33;94176.88;;;15.13;36.70
1926;BME280;964;42.606;23.588;2023-01-31T12:36:15;94181.59;;;15.75;35.97
1926;BME280;964;42.606;23.588;2023-01-31T12:38:57;94177.91;;;15.55;36.30
1926;BME280;964;42.606;23.588;2023-01-31T12:41:31;94177.91;;;15.55;36.12
1926;BME280;964;42.606;23.588;2023-01-31T12:44:11;94185.69;;;14.96;36.96
1926;BME280;964;42.606;23.588;2023-01-31T12:46:51;94186.44;;;13.80;37.64
1926;BME280;964;42.606;23.588;2023-01-31T12:49:32;94186.91;;;14.35;38.01
1926;BME280;964;42.606;23.588;2023-01-31T12:52:13;94178.88;;;14.81;36.97
1926;BME280;964;42.606;23.588;2023-01-31T12:54:50;94181.19;;;14.54;37.41
1926;BME280;964;42.606;23.588;2023-01-31T12:57:29;94176.13;;;15.09;36.79
1926;BME280;964;42.606;23.588;2023-01-31T13:00:11;94187.94;;;15.08;37.30
1926;BME280;964;42.606;23.588;2023-01-31T13:02:44;94184.81;;;15.35;36.44
1926;BME280;964;42.606;23.588;2023-01-31T13:05:24;94175.75;;;15.07;37.12
1926;BME280;964;42.606;23.588;2023-01-31T13:07:56;94174.63;;;15.95;35.37
1926;BME280;964;42.606;23.588;2023-01-31T13:10:34;94178.78;;;15.16;35.88
1926;BME280;964;42.606;23.588;2023-01-31T13:13:05;94174.34;;;14.57;36.39
1926;BME280;964;42.606;23.588;2023-01-31T13:15:41;94177.38;;;14.31;36.31
1926;BME280;964;42.606;23.588;2023-01-31T13:18:10;94178.91;;;14.60;36.29
1926;BME280;964;42.606;23.588;2023-01-31T13:20:43;94178.66;;;15.59;35.60
1926;BME280;964;42.606;23.588;2023-01-31T13:23:17;94179.47;;;15.35;35.62
1926;BME280;964;42.606;23.588;2023-01-31T13:25:48;94177.94;;;15.34;35.65
1926;BME280;964;42.606;23.588;2023-01-31T13:28:20;94176.91;;;14.99;35.64
1926;BME280;964;42.606;23.588;2023-01-31T13:30:52;94178.88;;;14.74;35.88
1926;BME280;964;42.606;23.588;2023-01-31T13:33:29;94173.84;;;15.08;35.33
1926;BME280;964;42.606;23.588;2023-01-31T13:36:07;94173.44;;;15.16;35.72
1926;BME280;964;42.606;23.588;2023-01-31T13:38:40;94169.50;;;15.53;35.09
1926;BME280;964;42.606;23.588;2023-01-31T13:41:12;94180.38;;;14.86;35.82
1926;BME280;964;42.606;23.588;2023-01-31T13:43:44;94182.22;;;15.10;35.31
1926;BME280;964;42.606;23.588;2023-01-31T13:46:12;94182.41;;;15.65;34.76